sensor_id;sensor_type;location;lat;lon;timestamp;pressure;altitude;pressure_sealevel;temperature;humidity
71559;BME280;59382;43.852;25.952;2023-05-19T00:01:30;101211.34;;;18.02;64.09
71559;BME280;59382;43.852;25.952;2023-05-19T00:03:57;101203.41;;;18.01;64.05
71559;BME280;59382;43.852;25.952;2023-05-19T00:06:25;101214.44;;;18.06;64.15
71559;BME280;59382;43.852;25.952;2023-05-19T00:09:02;101225.59;;;18.04;64.04
71559;BME280;59382;43.852;25.952;2023-05-19T00:11:29;101206.56;;;17.93;64.08
71559;BME280;59382;43.852;25.952;2023-05-19T00:13:57;101201.13;;;17.93;64.49
71559;BME280;59382;43.852;25.952;2023-05-19T00:16:24;101217.16;;;18.06;64.09
71559;BME280;59382;43.852;25.952;2023-05-19T00:18:50;101206.56;;;17.93;64.14
71559;BME280;59382;43.852;25.952;2023-05-19T00:21:16;101212.53;;;17.90;64.00
71559;BME280;59382;43.852;25.952;2023-05-19T00:23:42;101212.84;;;17.93;64.34
71559;BME280;59382;43.852;25.952;2023-05-19T00:26:08;101204.59;;;17.88;64.17
71559;BME280;59382;43.852;25.952;2023-05-19T00:28:33;101202.91;;;17.87;64.08
71559;BME280;59382;43.852;25.952;2023-05-19T00:30:59;101211.84;;;17.83;64.17
71559;BME280;59382;43.852;25.952;2023-05-19T00:33:26;101224.09;;;17.97;64.11
71559;BME280;59382;43.852;25.952;2023-05-19T00:35:52;101228.41;;;17.93;64.22
71559;BME280;59382;43.852;25.952;2023-05-19T00:38:17;101231.88;;;17.88;64.20
71559;BME280;59382;43.852;25.952;2023-05-19T00:40:44;101231.03;;;17.88;64.26
71559;BME280;59382;43.852;25.952;2023-05-19T00:43:09;101229.41;;;17.87;64.11
71559;BME280;59382;43.852;25.952;2023-05-19T00:45:35;101224.75;;;17.87;63.89
71559;BME280;59382;43.852;25.952;2023-05-19T00:48:01;101229.31;;;17.82;63.98
71559;BME280;59382;43.852;25.952;2023-05-19T00:50:26;101237.75;;;17.80;63.96
71559;BME280;59382;43.852;25.952;2023-05-19T00:52:56;101246.16;;;17.79;63.76
71559;BME280;59382;43.852;25.952;2023-05-19T00:55:27;101223.00;;;17.65;63.80
71559;BME280;59382;43.852;25.952;2023-05-19T00:57:57;101243.09;;;17.75;64.03
71559;BME280;59382;43.852;25.952;2023-05-19T01:00:23;101238.47;;;17.76;63.87
71559;BME280;59382;43.852;25.952;2023-05-19T01:02:49;101251.72;;;17.84;63.92
71559;BME280;59382;43.852;25.952;2023-05-19T01:05:15;101255.03;;;17.86;63.68
71559;BME280;59382;43.852;25.952;2023-05-19T01:07:41;101242.34;;;17.80;63.86
71559;BME280;59382;43.852;25.952;2023-05-19T01:10:08;101234.41;;;17.78;63.96
71559;BME280;59382;43.852;25.952;2023-05-19T01:12:35;101250.75;;;17.90;63.83
71559;BME280;59382;43.852;25.952;2023-05-19T01:15:02;101244.44;;;17.89;63.58
71559;BME280;59382;43.852;25.952;2023-05-19T01:17:47;101241.47;;;17.91;63.76
71559;BME280;59382;43.852;25.952;2023-05-19T01:20:19;101245.13;;;17.96;63.55
71559;BME280;59382;43.852;25.952;2023-05-19T01:25:50;101234.88;;;17.87;63.39
71559;BME280;59382;43.852;25.952;2023-05-19T01:31:43;101249.41;;;17.92;63.49
71559;BME280;59382;43.852;25.952;2023-05-19T01:34:12;101240.81;;;17.84;63.41
71559;BME280;59382;43.852;25.952;2023-05-19T01:36:40;101246.94;;;17.91;63.44
71559;BME280;59382;43.852;25.952;2023-05-19T01:39:12;101243.13;;;17.92;63.55
71559;BME280;59382;43.852;25.952;2023-05-19T01:41:40;101238.50;;;17.92;63.57
71559;BME280;59382;43.852;25.952;2023-05-19T01:44:06;101217.78;;;17.80;63.01
71559;BME280;59382;43.852;25.952;2023-05-19T01:46:36;101237.66;;;17.92;63.48
71559;BME280;59382;43.852;25.952;2023-05-19T01:49:01;101236.25;;;17.89;63.48
71559;BME280;59382;43.852;25.952;2023-05-19T01:51:28;101239.34;;;17.93;63.21
71559;BME280;59382;43.852;25.952;2023-05-19T01:53:53;101242.63;;;17.95;63.05
71559;BME280;59382;43.852;25.952;2023-05-19T01:59:23;101235.19;;;17.90;63.23
71559;BME280;59382;43.852;25.952;2023-05-19T02:01:52;101231.63;;;17.90;63.15
71559;BME280;59382;43.852;25.952;2023-05-19T02:04:44;101244.56;;;17.94;63.23
71559;BME280;59382;43.852;25.952;2023-05-19T02:07:51;101232.69;;;17.89;63.15
71559;BME280;59382;43.852;25.952;2023-05-19T02:10:27;101250.75;;;17.90;63.09
71559;BME280;59382;43.852;25.952;2023-05-19T02:13:00;101229.69;;;17.74;63.04
71559;BME280;59382;43.852;25.952;2023-05-19T02:15:29;101247.69;;;17.86;63.22
71559;BME280;59382;43.852;25.952;2023-05-19T02:17:59;101263.81;;;17.88;63.03
71559;BME280;59382;43.852;25.952;2023-05-19T02:20:29;101250.47;;;17.75;63.03
71559;BME280;59382;43.852;25.952;2023-05-19T02:22:55;101242.59;;;17.62;63.18
71559;BME280;59382;43.852;25.952;2023-05-19T02:25:21;101265.09;;;17.69;63.37
71559;BME280;59382;43.852;25.952;2023-05-19T02:27:47;101273.88;;;17.71;63.41
71559;BME280;59382;43.852;25.952;2023-05-19T02:30:13;101271.66;;;17.68;63.38
71559;BME280;59382;43.852;25.952;2023-05-19T02:32:39;101283.59;;;17.67;63.41
71559;BME280;59382;43.852;25.952;2023-05-19T02:35:05;101283.59;;;17.67;63.43
71559;BME280;59382;43.852;25.952;2023-05-19T02:37:30;101280.09;;;17.54;63.65
71559;BME280;59382;43.852;25.952;2023-05-19T02:39:57;101288.53;;;17.53;63.74
71559;BME280;59382;43.852;25.952;2023-05-19T02:42:22;101278.81;;;17.45;63.66
71559;BME280;59382;43.852;25.952;2023-05-19T02:44:48;101261.25;;;17.41;63.70
71559;BME280;59382;43.852;25.952;2023-05-19T02:47:14;101276.09;;;17.45;63.49
71559;BME280;59382;43.852;25.952;2023-05-19T02:49:39;101294.16;;;17.46;63.75
71559;BME280;59382;43.852;25.952;2023-05-19T02:52:05;101286.66;;;17.42;63.76
71559;BME280;59382;43.852;25.952;2023-05-19T02:54:32;101287.94;;;17.39;63.49
71559;BME280;59382;43.852;25.952;2023-05-19T02:56:59;101293.41;;;17.39;63.39
71559;BME280;59382;43.852;25.952;2023-05-19T02:59:24;101313.50;;;17.45;63.03
71559;BME280;59382;43.852;25.952;2023-05-19T03:01:53;101295.09;;;17.40;63.43
71559;BME280;59382;43.852;25.952;2023-05-19T03:04:19;101308.94;;;17.50;63.43
71559;BME280;59382;43.852;25.952;2023-05-19T03:06:45;101314.53;;;17.55;63.34
71559;BME280;59382;43.852;25.952;2023-05-19T03:09:11;101314.53;;;17.55;63.14
71559;BME280;59382;43.852;25.952;2023-05-19T03:11:38;101310.84;;;17.50;63.41
71559;BME280;59382;43.852;25.952;2023-05-19T03:14:03;101280.53;;;17.23;63.30
71559;BME280;59382;43.852;25.952;2023-05-19T03:16:29;101309.09;;;17.32;63.47
71559;BME280;59382;43.852;25.952;2023-05-19T03:18:55;101324.66;;;17.43;63.68
71559;BME280;59382;43.852;25.952;2023-05-19T03:21:21;101319.88;;;17.39;63.28
71559;BME280;59382;43.852;25.952;2023-05-19T03:23:47;101332.34;;;17.46;63.23
71559;BME280;59382;43.852;25.952;2023-05-19T03:26:12;101329.03;;;17.44;63.31
71559;BME280;59382;43.852;25.952;2023-05-19T03:28:38;101335.06;;;17.46;63.17
71559;BME280;59382;43.852;25.952;2023-05-19T03:31:06;101335.75;;;17.42;63.24
71559;BME280;59382;43.852;25.952;2023-05-19T03:33:31;101334.25;;;17.34;63.42
71559;BME280;59382;43.852;25.952;2023-05-19T03:35:57;101341.94;;;17.37;63.29
71559;BME280;59382;43.852;25.952;2023-05-19T03:38:23;101349.28;;;17.37;63.28
71559;BME280;59382;43.852;25.952;2023-05-19T03:40:48;101349.53;;;17.35;63.52
71559;BME280;59382;43.852;25.952;2023-05-19T03:43:14;101358.88;;;17.39;63.54
71559;BME280;59382;43.852;25.952;2023-05-19T03:45:40;101351.28;;;17.41;63.37
71559;BME280;59382;43.852;25.952;2023-05-19T03:48:06;101352.84;;;17.49;63.25
71559;BME280;59382;43.852;25.952;2023-05-19T03:50:31;101356.53;;;17.43;63.13
71559;BME280;59382;43.852;25.952;2023-05-19T03:52:58;101349.53;;;17.35;63.54
71559;BME280;59382;43.852;25.952;2023-05-19T03:55:24;101340.88;;;17.38;63.24
71559;BME280;59382;43.852;25.952;2023-05-19T03:57:50;101358.44;;;17.54;63.25
71559;BME280;59382;43.852;25.952;2023-05-19T04:00:17;101368.63;;;17.58;63.20
71559;BME280;59382;43.852;25.952;2023-05-19T04:02:42;101353.69;;;17.49;63.01
71559;BME280;59382;43.852;25.952;2023-05-19T04:05:09;101368.25;;;17.55;63.27
71559;BME280;59382;43.852;25.952;2023-05-19T04:07:34;101354.66;;;17.43;63.10
71559;BME280;59382;43.852;25.952;2023-05-19T04:10:03;101364.59;;;17.49;63.05
71559;BME280;59382;43.852;25.952;2023-05-19T04:12:29;101372.41;;;17.57;63.20
71559;BME280;59382;43.852;25.952;2023-05-19T04:14:54;101365.41;;;17.50;63.53
71559;BME280;59382;43.852;25.952;2023-05-19T04:17:20;101369.09;;;17.55;63.51
71559;BME280;59382;43.852;25.952;2023-05-19T04:19:47;101366.94;;;17.57;63.48
71559;BME280;59382;43.852;25.952;2023-05-19T04:22:13;101378.47;;;17.59;63.33
71559;BME280;59382;43.852;25.952;2023-05-19T04:24:39;101353.81;;;17.43;63.13
71559;BME280;59382;43.852;25.952;2023-05-19T04:27:04;101361.75;;;17.44;63.52
71559;BME280;59382;43.852;25.952;2023-05-19T04:29:36;101377.28;;;17.55;63.74
71559;BME280;59382;43.852;25.952;2023-05-19T04:32:02;101359.47;;;17.53;63.53
71559;BME280;59382;43.852;25.952;2023-05-19T04:34:33;101360.44;;;17.58;63.67
71559;BME280;59382;43.852;25.952;2023-05-19T04:37:05;101379.25;;;17.72;63.65
71559;BME280;59382;43.852;25.952;2023-05-19T04:39:31;101368.34;;;17.72;63.59
71559;BME280;59382;43.852;25.952;2023-05-19T04:41:57;101379.44;;;17.82;63.56
71559;BME280;59382;43.852;25.952;2023-05-19T04:44:24;101381.81;;;17.90;63.28
71559;BME280;59382;43.852;25.952;2023-05-19T04:46:50;101384.72;;;18.00;63.30
71559;BME280;59382;43.852;25.952;2023-05-19T04:49:18;101388.63;;;18.04;63.07
71559;BME280;59382;43.852;25.952;2023-05-19T04:51:48;101385.16;;;18.08;62.93
71559;BME280;59382;43.852;25.952;2023-05-19T04:54:15;101386.00;;;18.09;62.82
71559;BME280;59382;43.852;25.952;2023-05-19T04:56:41;101384.84;;;18.05;62.81
71559;BME280;59382;43.852;25.952;2023-05-19T04:59:08;101391.56;;;18.14;62.80
71559;BME280;59382;43.852;25.952;2023-05-19T05:01:34;101388.13;;;18.07;62.68
71559;BME280;59382;43.852;25.952;2023-05-19T05:04:05;101397.94;;;18.19;62.75
71559;BME280;59382;43.852;25.952;2023-05-19T05:06:31;101396.06;;;18.20;62.41
71559;BME280;59382;43.852;25.952;2023-05-19T05:08:57;101374.59;;;18.12;62.65
71559;BME280;59382;43.852;25.952;2023-05-19T05:11:24;101403.25;;;18.26;62.54
71559;BME280;59382;43.852;25.952;2023-05-19T05:13:50;101409.06;;;18.29;62.59
71559;BME280;59382;43.852;25.952;2023-05-19T05:16:16;101393.16;;;18.26;62.55
71559;BME280;59382;43.852;25.952;2023-05-19T05:18:42;101407.25;;;18.35;62.38
71559;BME280;59382;43.852;25.952;2023-05-19T05:21:08;101407.25;;;18.35;62.09
71559;BME280;59382;43.852;25.952;2023-05-19T05:23:34;101413.69;;;18.29;62.25
71559;BME280;59382;43.852;25.952;2023-05-19T05:26:04;101417.50;;;18.28;62.31
71559;BME280;59382;43.852;25.952;2023-05-19T05:28:33;101413.00;;;18.22;62.42
71559;BME280;59382;43.852;25.952;2023-05-19T05:30:59;101424.97;;;18.32;62.55
71559;BME280;59382;43.852;25.952;2023-05-19T05:33:27;101426.75;;;18.38;62.29
71559;BME280;59382;43.852;25.952;2023-05-19T05:35:52;101426.69;;;18.50;62.21
71559;BME280;59382;43.852;25.952;2023-05-19T05:38:18;101432.34;;;18.60;61.90
71559;BME280;59382;43.852;25.952;2023-05-19T05:40:43;101434.00;;;18.61;61.87
71559;BME280;59382;43.852;25.952;2023-05-19T05:43:09;101413.34;;;18.53;62.15
71559;BME280;59382;43.852;25.952;2023-05-19T05:45:35;101419.25;;;18.62;61.88
71559;BME280;59382;43.852;25.952;2023-05-19T05:48:01;101421.75;;;18.80;61.85
71559;BME280;59382;43.852;25.952;2023-05-19T05:50:27;101431.44;;;19.04;61.69
71559;BME280;59382;43.852;25.952;2023-05-19T05:52:52;101424.78;;;19.16;61.14
71559;BME280;59382;43.852;25.952;2023-05-19T05:55:20;101440.78;;;19.41;60.75
71559;BME280;59382;43.852;25.952;2023-05-19T05:57:46;101444.38;;;19.63;60.55
71559;BME280;59382;43.852;25.952;2023-05-19T06:00:13;101425.53;;;19.88;59.96
71559;BME280;59382;43.852;25.952;2023-05-19T06:02:43;101446.75;;;20.41;59.31
71559;BME280;59382;43.852;25.952;2023-05-19T06:05:10;101424.84;;;20.72;58.62
71559;BME280;59382;43.852;25.952;2023-05-19T06:07:37;101439.50;;;21.19;57.73
71559;BME280;59382;43.852;25.952;2023-05-19T06:10:03;101419.44;;;21.56;56.92
71559;BME280;59382;43.852;25.952;2023-05-19T06:12:29;101442.75;;;22.05;56.28
71559;BME280;59382;43.852;25.952;2023-05-19T06:14:54;101439.28;;;22.39;55.40
71559;BME280;59382;43.852;25.952;2023-05-19T06:17:20;101446.78;;;22.79;54.74
71559;BME280;59382;43.852;25.952;2023-05-19T06:19:46;101441.03;;;23.10;53.93
71559;BME280;59382;43.852;25.952;2023-05-19T06:22:11;101452.53;;;23.53;53.47
71559;BME280;59382;43.852;25.952;2023-05-19T06:24:37;101453.25;;;23.88;52.36
71559;BME280;59382;43.852;25.952;2023-05-19T06:27:03;101450.97;;;24.15;51.70
71559;BME280;59382;43.852;25.952;2023-05-19T06:29:28;101459.66;;;24.42;50.97
71559;BME280;59382;43.852;25.952;2023-05-19T06:31:54;101465.31;;;24.66;50.29
71559;BME280;59382;43.852;25.952;2023-05-19T06:34:20;101454.00;;;24.62;50.32
71559;BME280;59382;43.852;25.952;2023-05-19T06:36:46;101462.44;;;24.81;50.21
71559;BME280;59382;43.852;25.952;2023-05-19T06:39:11;101456.22;;;24.99;49.64
71559;BME280;59382;43.852;25.952;2023-05-19T06:41:37;101471.34;;;25.07;48.84
71559;BME280;59382;43.852;25.952;2023-05-19T06:44:05;101470.78;;;25.10;48.40
71559;BME280;59382;43.852;25.952;2023-05-19T06:46:31;101467.00;;;25.00;48.80
71559;BME280;59382;43.852;25.952;2023-05-19T06:48:56;101465.00;;;25.06;48.68
71559;BME280;59382;43.852;25.952;2023-05-19T06:51:22;101464.88;;;25.21;48.11
71559;BME280;59382;43.852;25.952;2023-05-19T06:53:48;101469.97;;;25.43;47.69
71559;BME280;59382;43.852;25.952;2023-05-19T06:56:13;101478.31;;;25.61;47.30
71559;BME280;59382;43.852;25.952;2023-05-19T06:58:40;101458.09;;;25.66;46.65
71559;BME280;59382;43.852;25.952;2023-05-19T07:01:05;101451.03;;;25.78;46.67
71559;BME280;59382;43.852;25.952;2023-05-19T07:03:31;101451.75;;;25.89;46.31
71559;BME280;59382;43.852;25.952;2023-05-19T07:05:56;101457.19;;;25.94;45.98
71559;BME280;59382;43.852;25.952;2023-05-19T07:08:22;101448.84;;;26.04;46.02
71559;BME280;59382;43.852;25.952;2023-05-19T07:10:48;101457.97;;;26.23;45.45
71559;BME280;59382;43.852;25.952;2023-05-19T07:13:13;101458.19;;;26.26;45.25
71559;BME280;59382;43.852;25.952;2023-05-19T07:15:39;101452.78;;;26.16;45.20
71559;BME280;59382;43.852;25.952;2023-05-19T07:18:08;101447.25;;;25.98;45.55
71559;BME280;59382;43.852;25.952;2023-05-19T07:20:34;101448.00;;;26.03;45.32
71559;BME280;59382;43.852;25.952;2023-05-19T07:22:59;101438.44;;;26.14;45.18
71559;BME280;59382;43.852;25.952;2023-05-19T07:25:27;101449.13;;;26.21;44.05
71559;BME280;59382;43.852;25.952;2023-05-19T07:27:55;101454.56;;;26.07;44.46
71559;BME280;59382;43.852;25.952;2023-05-19T07:30:21;101436.69;;;26.00;44.17
71559;BME280;59382;43.852;25.952;2023-05-19T07:32:46;101451.25;;;26.29;44.06
71559;BME280;59382;43.852;25.952;2023-05-19T07:35:12;101457.78;;;26.38;43.81
71559;BME280;59382;43.852;25.952;2023-05-19T07:37:37;101452.88;;;26.30;44.02
71559;BME280;59382;43.852;25.952;2023-05-19T07:40:09;101455.25;;;26.18;44.40
71559;BME280;59382;43.852;25.952;2023-05-19T07:42:35;101453.47;;;26.27;44.07
71559;BME280;59382;43.852;25.952;2023-05-19T07:45:00;101447.94;;;26.27;43.95
71559;BME280;59382;43.852;25.952;2023-05-19T07:47:29;101441.81;;;26.30;43.93
71559;BME280;59382;43.852;25.952;2023-05-19T07:49:55;101436.28;;;26.30;43.86
71559;BME280;59382;43.852;25.952;2023-05-19T07:52:20;101436.72;;;26.37;43.90
71559;BME280;59382;43.852;25.952;2023-05-19T07:54:46;101446.00;;;26.46;43.41
71559;BME280;59382;43.852;25.952;2023-05-19T07:57:11;101446.47;;;26.53;43.26
71559;BME280;59382;43.852;25.952;2023-05-19T07:59:38;101450.28;;;26.57;43.03
71559;BME280;59382;43.852;25.952;2023-05-19T08:02:04;101454.69;;;26.58;43.04
71559;BME280;59382;43.852;25.952;2023-05-19T08:04:30;101444.50;;;26.53;43.04
71559;BME280;59382;43.852;25.952;2023-05-19T08:06:56;101450.44;;;26.47;43.27
71559;BME280;59382;43.852;25.952;2023-05-19T08:09:21;101461.41;;;26.52;43.09
71559;BME280;59382;43.852;25.952;2023-05-19T08:11:47;101437.66;;;26.51;42.67
71559;BME280;59382;43.852;25.952;2023-05-19T08:14:14;101452.09;;;26.66;42.76
71559;BME280;59382;43.852;25.952;2023-05-19T08:16:39;101437.44;;;26.66;42.55
71559;BME280;59382;43.852;25.952;2023-05-19T08:19:07;101456.97;;;26.74;42.54
71559;BME280;59382;43.852;25.952;2023-05-19T08:21:33;101451.13;;;26.76;42.50
71559;BME280;59382;43.852;25.952;2023-05-19T08:24:00;101443.94;;;26.75;42.67
71559;BME280;59382;43.852;25.952;2023-05-19T08:26:26;101445.06;;;26.74;42.86
71559;BME280;59382;43.852;25.952;2023-05-19T08:28:52;101452.69;;;26.82;42.81
71559;BME280;59382;43.852;25.952;2023-05-19T08:31:17;101435.53;;;26.80;43.05
71559;BME280;59382;43.852;25.952;2023-05-19T08:33:43;101448.19;;;26.86;42.65
71559;BME280;59382;43.852;25.952;2023-05-19T08:36:12;101443.25;;;26.83;43.00
71559;BME280;59382;43.852;25.952;2023-05-19T08:38:38;101449.31;;;26.85;42.59
71559;BME280;59382;43.852;25.952;2023-05-19T08:41:03;101443.19;;;26.88;42.47
71559;BME280;59382;43.852;25.952;2023-05-19T08:43:30;101440.75;;;27.00;42.21
71559;BME280;59382;43.852;25.952;2023-05-19T08:46:01;101436.25;;;27.04;42.08
71559;BME280;59382;43.852;25.952;2023-05-19T08:48:28;101448.41;;;27.22;41.56
71559;BME280;59382;43.852;25.952;2023-05-19T08:54:15;101431.88;;;27.17;41.49
71559;BME280;59382;43.852;25.952;2023-05-19T08:56:43;101430.44;;;27.19;41.77
71559;BME280;59382;43.852;25.952;2023-05-19T08:59:11;101427.06;;;27.22;41.82
71559;BME280;59382;43.852;25.952;2023-05-19T09:01:37;101420.88;;;27.30;41.89
71559;BME280;59382;43.852;25.952;2023-05-19T09:04:04;101421.81;;;27.39;41.64
71559;BME280;59382;43.852;25.952;2023-05-19T09:06:30;101429.91;;;27.49;41.54
71559;BME280;59382;43.852;25.952;2023-05-19T09:08:56;101433.94;;;27.57;41.40
71559;BME280;59382;43.852;25.952;2023-05-19T09:11:22;101413.81;;;27.51;41.18
71559;BME280;59382;43.852;25.952;2023-05-19T09:13:50;101436.81;;;27.65;41.39
71559;BME280;59382;43.852;25.952;2023-05-19T09:16:16;101431.25;;;27.65;41.56
71559;BME280;59382;43.852;25.952;2023-05-19T09:18:55;101392.25;;;27.48;40.65
71559;BME280;59382;43.852;25.952;2023-05-19T09:21:29;101432.78;;;27.58;40.22
71559;BME280;59382;43.852;25.952;2023-05-19T09:23:56;101417.91;;;27.40;40.85
71559;BME280;59382;43.852;25.952;2023-05-19T09:26:23;101430.81;;;27.31;41.02
71559;BME280;59382;43.852;25.952;2023-05-19T09:28:48;101430.41;;;27.24;41.14
71559;BME280;59382;43.852;25.952;2023-05-19T09:31:14;101431.13;;;27.30;40.73
71559;BME280;59382;43.852;25.952;2023-05-19T09:33:40;101426.91;;;27.32;39.98
71559;BME280;59382;43.852;25.952;2023-05-19T09:36:09;101419.19;;;27.29;39.86
71559;BME280;59382;43.852;25.952;2023-05-19T09:38:37;101411.88;;;27.20;39.75
71559;BME280;59382;43.852;25.952;2023-05-19T09:41:03;101425.44;;;27.21;40.38
71559;BME280;59382;43.852;25.952;2023-05-19T09:43:31;101408.88;;;27.16;40.66
71559;BME280;59382;43.852;25.952;2023-05-19T09:46:07;101410.28;;;27.32;40.09
71559;BME280;59382;43.852;25.952;2023-05-19T09:48:34;101409.56;;;27.40;40.15
71559;BME280;59382;43.852;25.952;2023-05-19T09:51:01;101408.03;;;27.48;40.24
71559;BME280;59382;43.852;25.952;2023-05-19T09:53:29;101411.31;;;27.63;39.60
71559;BME280;59382;43.852;25.952;2023-05-19T09:55:56;101394.59;;;27.55;39.60
71559;BME280;59382;43.852;25.952;2023-05-19T09:58:25;101409.69;;;27.62;39.67
71559;BME280;59382;43.852;25.952;2023-05-19T10:00:53;101411.84;;;27.65;39.28
71559;BME280;59382;43.852;25.952;2023-05-19T10:03:24;101408.53;;;27.63;38.91
71559;BME280;59382;43.852;25.952;2023-05-19T10:05:49;101387.28;;;27.59;38.81
71559;BME280;59382;43.852;25.952;2023-05-19T10:08:17;101407.44;;;27.64;38.31
71559;BME280;59382;43.852;25.952;2023-05-19T10:10:45;101409.28;;;27.55;38.29
71559;BME280;59382;43.852;25.952;2023-05-19T10:13:11;101407.22;;;27.47;38.55
71559;BME280;59382;43.852;25.952;2023-05-19T10:15:39;101392.72;;;27.37;38.02
71559;BME280;59382;43.852;25.952;2023-05-19T10:18:05;101404.66;;;27.19;38.87
71559;BME280;59382;43.852;25.952;2023-05-19T10:20:37;101396.47;;;27.14;38.74
71559;BME280;59382;43.852;25.952;2023-05-19T10:23:04;101391.31;;;27.07;38.39
71559;BME280;59382;43.852;25.952;2023-05-19T10:25:31;101400.16;;;27.09;38.51
71559;BME280;59382;43.852;25.952;2023-05-19T10:28:07;101389.25;;;27.13;38.56
71559;BME280;59382;43.852;25.952;2023-05-19T10:30:37;101393.41;;;27.15;38.27
71559;BME280;59382;43.852;25.952;2023-05-19T10:33:06;101376.47;;;26.84;38.17
71559;BME280;59382;43.852;25.952;2023-05-19T10:46:03;101374.06;;;26.97;37.78
71559;BME280;59382;43.852;25.952;2023-05-19T10:48:34;101370.94;;;26.84;37.92
71559;BME280;59382;43.852;25.952;2023-05-19T10:51:02;101358.31;;;26.78;37.86
71559;BME280;59382;43.852;25.952;2023-05-19T10:53:32;101355.94;;;26.72;38.00
71559;BME280;59382;43.852;25.952;2023-05-19T10:56:00;101348.91;;;26.61;38.15
71559;BME280;59382;43.852;25.952;2023-05-19T11:01:15;101361.50;;;26.35;39.19
71559;BME280;59382;43.852;25.952;2023-05-19T11:03:49;101371.06;;;26.24;39.15
71559;BME280;59382;43.852;25.952;2023-05-19T11:06:30;101360.03;;;26.05;39.50
71559;BME280;59382;43.852;25.952;2023-05-19T11:09:18;101362.50;;;26.07;39.67
71559;BME280;59382;43.852;25.952;2023-05-19T11:11:48;101353.44;;;26.20;39.35
71559;BME280;59382;43.852;25.952;2023-05-19T11:14:17;101353.03;;;26.26;39.21
71559;BME280;59382;43.852;25.952;2023-05-19T11:16:46;101334.22;;;26.28;39.07
71559;BME280;59382;43.852;25.952;2023-05-19T11:21:48;101331.16;;;26.30;38.79
71559;BME280;59382;43.852;25.952;2023-05-19T11:24:46;101350.06;;;26.23;38.08
71559;BME280;59382;43.852;25.952;2023-05-19T11:29:46;101344.06;;;26.16;38.23
71559;BME280;59382;43.852;25.952;2023-05-19T11:32:13;101333.84;;;26.16;37.77
71559;BME280;59382;43.852;25.952;2023-05-19T11:34:38;101341.84;;;26.18;37.72
71559;BME280;59382;43.852;25.952;2023-05-19T11:37:07;101319.88;;;26.08;37.71
71559;BME280;59382;43.852;25.952;2023-05-19T11:39:34;101327.19;;;26.17;37.74
71559;BME280;59382;43.852;25.952;2023-05-19T11:41:59;101308.75;;;26.13;37.86
71559;BME280;59382;43.852;25.952;2023-05-19T11:44:25;101310.81;;;26.21;37.74
71559;BME280;59382;43.852;25.952;2023-05-19T11:46:51;101325.69;;;26.25;37.44
71559;BME280;59382;43.852;25.952;2023-05-19T11:49:20;101317.03;;;26.13;37.42
71559;BME280;59382;43.852;25.952;2023-05-19T11:51:45;101319.34;;;26.06;36.78
71559;BME280;59382;43.852;25.952;2023-05-19T11:54:11;101321.81;;;26.07;36.43
71559;BME280;59382;43.852;25.952;2023-05-19T11:56:41;101315.97;;;26.09;35.03
71559;BME280;59382;43.852;25.952;2023-05-19T11:59:07;101298.34;;;26.05;35.10
71559;BME280;59382;43.852;25.952;2023-05-19T12:01:38;101292.75;;;26.10;34.63
71559;BME280;59382;43.852;25.952;2023-05-19T12:04:07;101279.41;;;26.12;33.97
71559;BME280;59382;43.852;25.952;2023-05-19T12:06:34;101300.47;;;26.26;33.63
71559;BME280;59382;43.852;25.952;2023-05-19T12:09:01;101278.03;;;26.28;33.73
71559;BME280;59382;43.852;25.952;2023-05-19T12:11:27;101275.81;;;26.30;33.21
71559;BME280;59382;43.852;25.952;2023-05-19T12:14:00;101278.50;;;26.35;32.94
71559;BME280;59382;43.852;25.952;2023-05-19T12:16:33;101255.47;;;26.21;32.59
71559;BME280;59382;43.852;25.952;2023-05-19T12:19:00;101274.59;;;26.36;32.77
71559;BME280;59382;43.852;25.952;2023-05-19T12:21:25;101258.59;;;26.33;33.05
71559;BME280;59382;43.852;25.952;2023-05-19T12:23:54;101255.53;;;26.34;33.01
71559;BME280;59382;43.852;25.952;2023-05-19T12:26:27;101262.94;;;26.39;33.00
71559;BME280;59382;43.852;25.952;2023-05-19T12:28:53;101263.94;;;26.43;33.02
71559;BME280;59382;43.852;25.952;2023-05-19T12:31:20;101265.00;;;26.47;32.91
71559;BME280;59382;43.852;25.952;2023-05-19T12:33:48;101266.66;;;26.48;32.24
71559;BME280;59382;43.852;25.952;2023-05-19T12:36:17;101255.16;;;26.41;32.34
71559;BME280;59382;43.852;25.952;2023-05-19T12:38:43;101264.41;;;26.50;31.76
71559;BME280;59382;43.852;25.952;2023-05-19T12:41:13;101261.50;;;26.41;31.63
71559;BME280;59382;43.852;25.952;2023-05-19T12:43:39;101262.97;;;26.52;31.74
71559;BME280;59382;43.852;25.952;2023-05-19T12:46:12;101249.00;;;26.44;31.29
71559;BME280;59382;43.852;25.952;2023-05-19T12:48:44;101256.28;;;26.53;31.36
71559;BME280;59382;43.852;25.952;2023-05-19T12:51:20;101256.97;;;26.64;31.11
71559;BME280;59382;43.852;25.952;2023-05-19T12:53:48;101258.75;;;26.73;31.16
71559;BME280;59382;43.852;25.952;2023-05-19T12:56:15;101240.78;;;26.71;31.32
71559;BME280;59382;43.852;25.952;2023-05-19T12:58:41;101232.06;;;26.77;31.55
71559;BME280;59382;43.852;25.952;2023-05-19T13:01:14;101252.78;;;26.94;30.73
71559;BME280;59382;43.852;25.952;2023-05-19T13:03:43;101248.69;;;26.91;31.32
71559;BME280;59382;43.852;25.952;2023-05-19T13:06:09;101248.28;;;26.84;30.90
71559;BME280;59382;43.852;25.952;2023-05-19T13:08:35;101251.56;;;26.86;31.38
71559;BME280;59382;43.852;25.952;2023-05-19T13:11:01;101231.47;;;26.80;30.85
71559;BME280;59382;43.852;25.952;2023-05-19T13:13:27;101254.53;;;26.90;31.05